Sahiwal Weather



Sahiwal's Current Weather

Temprature 18.68o clear sky

clear sky

Rain: 0 %

Min Temprature18.68o
Max Temprature18.68o
Humidity26
Wind Speed1.15 m/h
Sun Rise06:19:15
Sun Set17:23:17
Current Time: 28-Oct-2020 04:25:39
Lat/Lon: 30.67, 73.1




Sahiwal's Geo Location



Sahiwal's Weather Forecast

Time Overall Temp Min Temp Max Temp Humidity Wind Speed Rain
28-Oct-2020 (Wed)
05:00:00 clear sky 18.660 18.410 18.660 26 1.46 m/h 0 %
08:00:00 clear sky 21.800 21.800 22.600 21 2.16 m/h 0 %
11:00:00 clear sky 31.170 31.170 32.010 12 3.59 m/h 0 %
14:00:00 clear sky 34.060 34.060 34.180 10 2.72 m/h 0 %
17:00:00 clear sky 28.900 28.900 28.900 14 1.34 m/h 0 %
20:00:00 clear sky 22.550 22.550 22.550 20 1.62 m/h 0 %
23:00:00 clear sky 20.730 20.730 20.730 22 1.46 m/h 0 %
29-Oct-2020 (Thu)
02:00:00 clear sky 19.060 19.060 19.060 25 1.38 m/h 0 %
05:00:00 clear sky 18.040 18.040 18.040 27 2.46 m/h 0 %
08:00:00 clear sky 22.180 22.180 22.180 21 2.86 m/h 0 %
11:00:00 clear sky 31.640 31.640 31.640 12 3.34 m/h 0 %
14:00:00 clear sky 34.530 34.530 34.530 10 2.85 m/h 0 %
17:00:00 clear sky 29.570 29.570 29.570 14 2.37 m/h 0 %
20:00:00 clear sky 23.070 23.070 23.070 20 2.5 m/h 0 %
23:00:00 clear sky 20.340 20.340 20.340 24 1.22 m/h 0 %
30-Oct-2020 (Fri)
02:00:00 clear sky 19.240 19.240 19.240 25 2.19 m/h 0 %
05:00:00 clear sky 17.520 17.520 17.520 28 2.04 m/h 0 %
08:00:00 clear sky 21.560 21.560 21.560 22 2.19 m/h 0 %
11:00:00 clear sky 31.020 31.020 31.020 12 2.45 m/h 0 %
14:00:00 clear sky 33.770 33.770 33.770 10 3 m/h 0 %
17:00:00 clear sky 28.640 28.640 28.640 13 2.7 m/h 0 %
20:00:00 clear sky 23.090 23.090 23.090 19 2.36 m/h 0 %
23:00:00 clear sky 20.170 20.170 20.170 22 2.07 m/h 0 %
31-Oct-2020 (Sat)
02:00:00 clear sky 18.450 18.450 18.450 24 2.44 m/h 0 %
05:00:00 clear sky 17.220 17.220 17.220 26 1.88 m/h 0 %
08:00:00 clear sky 21.360 21.360 21.360 20 0.54 m/h 0 %
11:00:00 clear sky 31.630 31.630 31.630 11 1.24 m/h 0 %
14:00:00 clear sky 33.550 33.550 33.550 10 3.2 m/h 0 %
17:00:00 clear sky 28.350 28.350 28.350 13 2.61 m/h 0 %
20:00:00 clear sky 22.670 22.670 22.670 19 2.8 m/h 0 %
23:00:00 clear sky 20.090 20.090 20.090 22 1.77 m/h 0 %
01-Nov-2020 (Sun)
02:00:00 clear sky 17.120 17.120 17.120 27 0.83 m/h 0 %
05:00:00 clear sky 16.360 16.360 16.360 28 0.62 m/h 0 %
08:00:00 clear sky 22.320 22.320 22.320 19 1.19 m/h 0 %
11:00:00 clear sky 32.590 32.590 32.590 10 0.18 m/h 0 %
14:00:00 clear sky 33.590 33.590 33.590 9 2.57 m/h 0 %
17:00:00 clear sky 28.060 28.060 28.060 13 2.19 m/h 0 %
20:00:00 clear sky 21.580 21.580 21.580 20 2.16 m/h 0 %
23:00:00 clear sky 18.560 18.560 18.560 24 0.3 m/h 0 %
02-Nov-2020 (Mon)
02:00:00 clear sky 17.350 17.350 17.350 26 0.66 m/h 0 %

Famous Cities (60)